Time;durP1;ratioP1;P1;durP2;ratioP2;P2;SDS_P1;SDS_P2;PMS_P1;PMS_P2;Temp;Humidity;BMP_temperature;BMP_pressure;BME280_temperature;BME280_humidity;BME280_pressure;Samples;Min_cycle;Max_cycle;Signal;HPM_P1;HPM_P2
2024/01/27 00:00:33;;;;;;;;;57.75;43.75;;;;;;;;5107726;27;8945;-79
2024/01/27 00:02:58;;;;;;;;;55.75;44.00;;;;;;;;5123724;27;8838;-79
2024/01/27 00:05:24;;;;;;;;;57.50;43.00;;;;;;;;5126256;27;8849;-78
2024/01/27 00:07:49;;;;;;;;;60.25;46.00;;;;;;;;5126670;27;9015;-78
2024/01/27 00:10:14;;;;;;;;;59.75;43.25;;;;;;;;5129308;27;8950;-78
2024/01/27 00:12:40;;;;;;;;;60.00;47.75;;;;;;;;5129770;27;8957;-78
2024/01/27 00:15:06;;;;;;;;;62.75;46.00;;;;;;;;5131771;27;8945;-78
2024/01/27 00:17:32;;;;;;;;;58.00;46.25;;;;;;;;5121340;27;8791;-78
2024/01/27 00:19:57;;;;;;;;;55.50;46.00;;;;;;;;5124216;27;10914;-79
2024/01/27 00:22:22;;;;;;;;;55.00;43.25;;;;;;;;5125213;27;8849;-78
2024/01/27 00:24:47;;;;;;;;;63.25;49.50;;;;;;;;5119010;27;8821;-78
2024/01/27 00:27:13;;;;;;;;;57.75;46.75;;;;;;;;5125480;27;8809;-78
2024/01/27 00:29:38;;;;;;;;;56.75;44.50;;;;;;;;5124986;27;8941;-81
2024/01/27 00:32:03;;;;;;;;;62.75;49.00;;;;;;;;5129500;27;8808;-80
2024/01/27 00:34:29;;;;;;;;;56.50;46.75;;;;;;;;5126676;27;8798;-80
2024/01/27 00:36:59;;;;;;;;;68.00;52.25;;;;;;;;5113869;27;8881;-79
2024/01/27 00:39:25;;;;;;;;;65.50;51.00;;;;;;;;5132046;27;8803;-78
2024/01/27 00:41:51;;;;;;;;;73.50;54.00;;;;;;;;5131340;27;11465;-79
2024/01/27 00:44:16;;;;;;;;;66.25;51.50;;;;;;;;5126449;27;8754;-82
2024/01/27 00:46:41;;;;;;;;;69.75;52.00;;;;;;;;5119428;27;11446;-78
2024/01/27 00:49:07;;;;;;;;;58.25;47.50;;;;;;;;5131359;27;8833;-78
2024/01/27 00:51:32;;;;;;;;;56.25;46.50;;;;;;;;5127251;27;8827;-80
2024/01/27 00:53:57;;;;;;;;;64.00;50.00;;;;;;;;5099450;28;8846;-78
2024/01/27 00:56:23;;;;;;;;;65.00;49.25;;;;;;;;5113260;27;8926;-78
2024/01/27 00:58:48;;;;;;;;;63.25;50.25;;;;;;;;5105524;27;8791;-80
2024/01/27 01:01:13;;;;;;;;;59.00;48.75;;;;;;;;5131453;27;8873;-80
2024/01/27 01:03:39;;;;;;;;;68.25;51.00;;;;;;;;5125605;27;9967;-80
2024/01/27 01:06:04;;;;;;;;;61.25;50.00;;;;;;;;5111332;27;9648;-80
2024/01/27 01:08:36;;;;;;;;;66.75;53.25;;;;;;;;5126985;27;8911;-76
2024/01/27 01:11:01;;;;;;;;;54.00;45.00;;;;;;;;5122075;27;9772;-78
2024/01/27 01:13:26;;;;;;;;;70.25;52.25;;;;;;;;5124595;27;11578;-76
2024/01/27 01:15:52;;;;;;;;;62.75;51.00;;;;;;;;5102860;27;8850;-77
2024/01/27 01:18:17;;;;;;;;;64.50;52.50;;;;;;;;5117435;27;9837;-77
2024/01/27 01:20:42;;;;;;;;;61.00;48.75;;;;;;;;5125946;27;8865;-79
2024/01/27 01:23:08;;;;;;;;;64.75;51.25;;;;;;;;5113106;27;8855;-79
2024/01/27 01:25:33;;;;;;;;;64.50;50.50;;;;;;;;5127194;27;8812;-77
2024/01/27 01:27:58;;;;;;;;;66.00;51.75;;;;;;;;5115178;27;8914;-74
2024/01/27 01:30:23;;;;;;;;;61.00;49.75;;;;;;;;5129244;27;8933;-77
2024/01/27 01:32:50;;;;;;;;;70.25;52.75;;;;;;;;5131131;27;8827;-77
2024/01/27 01:35:15;;;;;;;;;66.75;49.75;;;;;;;;5129614;27;8819;-77
2024/01/27 01:37:40;;;;;;;;;68.50;51.50;;;;;;;;5127731;27;11453;-79
2024/01/27 01:40:07;;;;;;;;;69.75;52.00;;;;;;;;5131044;27;8846;-78
2024/01/27 01:42:35;;;;;;;;;67.00;52.75;;;;;;;;5127685;27;8766;-80
2024/01/27 01:45:04;;;;;;;;;66.50;51.75;;;;;;;;5131592;27;11473;-79
2024/01/27 01:47:29;;;;;;;;;64.25;47.75;;;;;;;;5131075;27;11426;-79
2024/01/27 01:49:55;;;;;;;;;67.25;52.00;;;;;;;;5129874;27;12546;-80
2024/01/27 01:52:21;;;;;;;;;60.50;48.75;;;;;;;;5129151;27;8807;-77
2024/01/27 01:54:50;;;;;;;;;56.75;45.00;;;;;;;;5111238;27;12317;-77
2024/01/27 01:57:15;;;;;;;;;61.25;47.75;;;;;;;;5120148;27;8816;-77
2024/01/27 01:59:41;;;;;;;;;66.00;50.25;;;;;;;;5127857;27;11464;-78
2024/01/27 02:02:06;;;;;;;;;61.25;49.50;;;;;;;;5128463;27;8842;-78
2024/01/27 02:04:39;;;;;;;;;60.25;48.50;;;;;;;;5111699;27;8931;-77
2024/01/27 02:07:04;;;;;;;;;59.75;46.00;;;;;;;;5126763;27;8944;-79
2024/01/27 02:09:30;;;;;;;;;62.75;48.00;;;;;;;;5124097;27;11290;-79
2024/01/27 02:11:55;;;;;;;;;56.75;45.25;;;;;;;;5125725;27;8800;-79
2024/01/27 02:14:25;;;;;;;;;58.00;45.25;;;;;;;;5128548;27;11051;-79
2024/01/27 02:16:50;;;;;;;;;59.00;46.00;;;;;;;;5101886;28;8797;-80
2024/01/27 02:19:15;;;;;;;;;57.00;44.00;;;;;;;;5110299;27;11891;-80
2024/01/27 02:21:40;;;;;;;;;53.00;42.50;;;;;;;;5130113;27;8849;-79
2024/01/27 02:24:07;;;;;;;;;55.00;45.50;;;;;;;;5127403;27;8807;-78
2024/01/27 02:26:32;;;;;;;;;58.25;42.25;;;;;;;;5126857;27;8852;-78
2024/01/27 02:28:57;;;;;;;;;52.75;42.50;;;;;;;;5131542;27;11034;-77
2024/01/27 02:31:22;;;;;;;;;46.50;40.25;;;;;;;;5134422;27;8918;-78
2024/01/27 02:33:48;;;;;;;;;53.50;41.50;;;;;;;;5104392;27;8839;-78
2024/01/27 02:36:13;;;;;;;;;55.50;42.00;;;;;;;;5130097;27;8778;-77
2024/01/27 02:38:39;;;;;;;;;55.25;42.50;;;;;;;;5112566;27;8806;-78
2024/01/27 02:41:04;;;;;;;;;54.50;44.50;;;;;;;;5124694;27;8756;-79
2024/01/27 02:43:30;;;;;;;;;55.25;44.25;;;;;;;;5130394;27;11147;-82
2024/01/27 02:45:55;;;;;;;;;52.25;43.50;;;;;;;;5130432;27;8817;-80
2024/01/27 02:48:21;;;;;;;;;65.00;48.00;;;;;;;;5127325;27;8828;-79
2024/01/27 02:50:46;;;;;;;;;52.75;42.00;;;;;;;;5128267;27;8917;-81
2024/01/27 02:53:11;;;;;;;;;56.75;42.75;;;;;;;;5130316;27;9543;-78
2024/01/27 02:55:36;;;;;;;;;59.50;45.50;;;;;;;;5130342;27;8832;-79
2024/01/27 02:58:01;;;;;;;;;57.75;48.00;;;;;;;;5130156;27;8940;-79
2024/01/27 03:00:27;;;;;;;;;60.00;47.00;;;;;;;;5133075;27;8841;-80
2024/01/27 03:02:52;;;;;;;;;60.25;47.00;;;;;;;;5113108;27;8826;-79
2024/01/27 03:05:17;;;;;;;;;62.75;49.50;;;;;;;;5132413;27;8927;-79
2024/01/27 03:07:42;;;;;;;;;63.50;49.50;;;;;;;;5114644;27;8814;-80
2024/01/27 03:10:08;;;;;;;;;54.25;45.00;;;;;;;;5112334;27;8880;-78
2024/01/27 03:12:33;;;;;;;;;60.25;47.25;;;;;;;;5124547;27;8807;-78
2024/01/27 03:14:58;;;;;;;;;55.00;44.00;;;;;;;;5112844;27;8854;-78
2024/01/27 03:17:23;;;;;;;;;51.50;43.50;;;;;;;;5129614;27;8818;-76
2024/01/27 03:19:48;;;;;;;;;55.00;44.75;;;;;;;;5129864;27;9586;-77
2024/01/27 03:22:14;;;;;;;;;58.75;43.00;;;;;;;;5130513;27;8929;-77
2024/01/27 03:24:39;;;;;;;;;51.25;35.50;;;;;;;;5126756;27;8834;-78
2024/01/27 03:27:04;;;;;;;;;52.50;41.50;;;;;;;;5114139;27;8858;-77
2024/01/27 03:29:29;;;;;;;;;53.50;39.75;;;;;;;;5131207;27;8848;-75
2024/01/27 03:31:58;;;;;;;;;50.50;40.75;;;;;;;;5110060;27;8848;-77
2024/01/27 03:34:24;;;;;;;;;53.25;42.25;;;;;;;;5130523;27;8786;-75
2024/01/27 03:36:50;;;;;;;;;50.50;40.50;;;;;;;;5125650;27;10924;-78
2024/01/27 03:39:15;;;;;;;;;52.50;41.50;;;;;;;;5132798;27;11149;-78
2024/01/27 03:41:40;;;;;;;;;53.00;42.75;;;;;;;;5132692;27;8850;-79
2024/01/27 03:44:06;;;;;;;;;52.50;40.75;;;;;;;;5132129;27;8844;-79
2024/01/27 03:46:31;;;;;;;;;52.50;39.50;;;;;;;;5124786;27;8810;-78
2024/01/27 03:48:57;;;;;;;;;44.75;37.75;;;;;;;;5125304;27;8824;-79
2024/01/27 03:51:25;;;;;;;;;51.75;41.00;;;;;;;;5111931;27;8870;-78
2024/01/27 03:53:50;;;;;;;;;52.00;38.50;;;;;;;;5094391;28;10786;-80
2024/01/27 03:56:15;;;;;;;;;50.25;42.00;;;;;;;;5110517;27;10823;-78
2024/01/27 03:58:41;;;;;;;;;53.25;42.00;;;;;;;;5132742;27;8798;-78
2024/01/27 04:01:06;;;;;;;;;55.00;46.00;;;;;;;;5133255;27;8833;-77
2024/01/27 04:03:31;;;;;;;;;55.50;43.00;;;;;;;;5123550;27;8797;-78
2024/01/27 04:05:56;;;;;;;;;55.25;42.25;;;;;;;;5128807;27;8876;-78
2024/01/27 04:08:22;;;;;;;;;55.25;43.00;;;;;;;;5123714;27;8821;-78
2024/01/27 04:10:47;;;;;;;;;52.50;41.50;;;;;;;;5133181;27;8917;-77
2024/01/27 04:13:12;;;;;;;;;49.75;40.75;;;;;;;;5107945;28;8866;-78
2024/01/27 04:15:38;;;;;;;;;37.00;31.50;;;;;;;;5129752;27;8991;-79
2024/01/27 04:18:11;;;;;;;;;43.50;35.75;;;;;;;;5114724;27;8840;-79
2024/01/27 04:20:36;;;;;;;;;36.00;28.50;;;;;;;;5131402;27;8841;-79
2024/01/27 04:23:02;;;;;;;;;37.25;28.00;;;;;;;;5129615;27;10238;-77
2024/01/27 04:25:27;;;;;;;;;66.50;49.00;;;;;;;;5130211;27;8854;-80
2024/01/27 04:27:53;;;;;;;;;47.00;39.00;;;;;;;;5130786;27;8830;-80
2024/01/27 04:30:18;;;;;;;;;49.25;39.25;;;;;;;;5130904;27;8836;-79
2024/01/27 04:32:43;;;;;;;;;53.00;39.25;;;;;;;;5128468;27;8845;-80
2024/01/27 04:35:09;;;;;;;;;47.25;35.25;;;;;;;;5108448;27;9139;-78
2024/01/27 04:37:35;;;;;;;;;31.75;26.75;;;;;;;;5132436;27;8755;-78
2024/01/27 04:40:00;;;;;;;;;33.00;28.25;;;;;;;;5113181;27;10369;-80
2024/01/27 04:42:25;;;;;;;;;35.00;31.50;;;;;;;;5127190;27;8824;-79
2024/01/27 04:44:50;;;;;;;;;34.50;32.25;;;;;;;;5128356;27;8836;-78
2024/01/27 04:47:16;;;;;;;;;34.00;29.75;;;;;;;;5111891;27;8841;-79
2024/01/27 04:49:42;;;;;;;;;39.75;32.00;;;;;;;;5132117;27;8797;-77
2024/01/27 04:52:07;;;;;;;;;35.75;32.50;;;;;;;;5127958;27;10913;-77
2024/01/27 04:54:32;;;;;;;;;43.00;36.00;;;;;;;;5129331;27;9922;-78
2024/01/27 04:56:58;;;;;;;;;34.75;30.25;;;;;;;;5132646;27;8872;-78
2024/01/27 04:59:24;;;;;;;;;33.00;29.25;;;;;;;;5131112;27;8849;-79
2024/01/27 05:01:50;;;;;;;;;38.75;32.75;;;;;;;;5123829;27;8802;-78
2024/01/27 05:04:15;;;;;;;;;30.75;28.00;;;;;;;;5112136;27;10361;-78
2024/01/27 05:06:44;;;;;;;;;32.25;29.00;;;;;;;;5121886;27;8877;-80
2024/01/27 05:09:09;;;;;;;;;34.75;31.75;;;;;;;;5131017;27;8783;-78
2024/01/27 05:11:35;;;;;;;;;35.25;28.25;;;;;;;;5130068;27;10242;-78
2024/01/27 05:14:00;;;;;;;;;35.00;31.75;;;;;;;;5130733;27;8818;-79
2024/01/27 05:16:25;;;;;;;;;19.50;13.00;;;;;;;;5130910;27;8872;-78
2024/01/27 05:18:51;;;;;;;;;31.50;30.50;;;;;;;;5111652;27;9605;-80
2024/01/27 05:21:16;;;;;;;;;35.50;29.75;;;;;;;;5112466;27;8846;-80
2024/01/27 05:23:41;;;;;;;;;38.50;35.50;;;;;;;;5105208;27;8823;-78
2024/01/27 05:26:07;;;;;;;;;35.50;31.00;;;;;;;;5100642;28;8866;-76
2024/01/27 05:28:33;;;;;;;;;35.00;27.00;;;;;;;;5126674;27;8818;-77
2024/01/27 05:30:58;;;;;;;;;39.75;28.50;;;;;;;;5130167;27;8783;-78
2024/01/27 05:33:23;;;;;;;;;28.25;24.75;;;;;;;;5124142;27;10396;-78
2024/01/27 05:35:49;;;;;;;;;29.25;25.00;;;;;;;;5132560;27;8853;-83
2024/01/27 05:38:14;;;;;;;;;31.25;28.75;;;;;;;;5125905;27;8907;-77
2024/01/27 05:40:39;;;;;;;;;35.00;26.50;;;;;;;;5124273;27;8838;-77
2024/01/27 05:43:04;;;;;;;;;31.50;27.25;;;;;;;;5108348;27;8846;-78
2024/01/27 05:45:31;;;;;;;;;29.75;24.00;;;;;;;;5131370;27;8802;-76
2024/01/27 05:47:56;;;;;;;;;42.50;32.50;;;;;;;;5106514;27;8851;-76
2024/01/27 05:50:21;;;;;;;;;32.75;22.50;;;;;;;;5127583;27;10529;-78
2024/01/27 05:52:46;;;;;;;;;25.25;22.25;;;;;;;;5117188;27;42753;-81
2024/01/27 05:55:12;;;;;;;;;32.00;26.00;;;;;;;;5087254;27;45833;-77
2024/01/27 05:57:38;;;;;;;;;28.25;23.00;;;;;;;;5067554;27;47774;-77
2024/01/27 06:00:03;;;;;;;;;28.75;25.00;;;;;;;;5087076;27;45424;-77
2024/01/27 06:02:28;;;;;;;;;32.25;28.25;;;;;;;;5064095;27;45332;-77
2024/01/27 06:04:54;;;;;;;;;27.00;23.00;;;;;;;;5067474;27;46982;-78
2024/01/27 06:07:19;;;;;;;;;26.00;23.00;;;;;;;;5086270;27;45747;-78
2024/01/27 06:09:44;;;;;;;;;30.00;27.75;;;;;;;;5087825;27;45336;-77
2024/01/27 06:12:10;;;;;;;;;33.00;29.75;;;;;;;;5089271;27;45875;-77
2024/01/27 06:14:35;;;;;;;;;27.50;26.75;;;;;;;;5088110;27;45376;-79
2024/01/27 06:17:01;;;;;;;;;30.50;26.75;;;;;;;;5083291;27;47002;-74
2024/01/27 06:19:26;;;;;;;;;26.00;20.75;;;;;;;;5091972;27;46392;-78
2024/01/27 06:21:51;;;;;;;;;25.75;24.50;;;;;;;;5085173;27;45695;-80
2024/01/27 06:24:16;;;;;;;;;27.50;23.50;;;;;;;;5087551;27;45376;-79
2024/01/27 06:26:42;;;;;;;;;33.75;30.25;;;;;;;;5082479;27;45619;-79
2024/01/27 06:29:07;;;;;;;;;34.50;29.75;;;;;;;;5068577;27;45587;-70
2024/01/27 06:31:32;;;;;;;;;34.75;26.50;;;;;;;;5084338;27;45495;-69
2024/01/27 06:33:57;;;;;;;;;35.75;26.75;;;;;;;;5086602;27;45926;-69
2024/01/27 06:36:24;;;;;;;;;29.00;19.75;;;;;;;;5090005;27;45409;-69
2024/01/27 06:38:50;;;;;;;;;32.50;29.00;;;;;;;;5088880;27;45451;-70
2024/01/27 06:41:15;;;;;;;;;33.75;28.50;;;;;;;;5067593;27;45809;-70
2024/01/27 06:43:40;;;;;;;;;35.25;29.50;;;;;;;;5091749;27;45608;-68
2024/01/27 06:48:37;;;;;;;;;33.75;29.00;;;;;;;;5061917;27;45537;-78
2024/01/27 06:51:03;;;;;;;;;37.50;29.75;;;;;;;;5070054;28;45681;-79
2024/01/27 06:53:28;;;;;;;;;34.75;30.00;;;;;;;;5070749;28;45542;-77
2024/01/27 06:55:54;;;;;;;;;34.25;30.75;;;;;;;;5051501;28;47143;-78
2024/01/27 06:58:19;;;;;;;;;27.75;22.75;;;;;;;;5078825;28;45614;-79
2024/01/27 07:00:45;;;;;;;;;42.00;36.25;;;;;;;;5038779;28;45865;-80
2024/01/27 07:03:10;;;;;;;;;40.25;36.00;;;;;;;;5059085;28;45948;-78
2024/01/27 07:05:38;;;;;;;;;39.25;33.00;;;;;;;;5047537;28;47331;-78
2024/01/27 07:08:05;;;;;;;;;35.50;31.75;;;;;;;;5070409;28;45407;-78
2024/01/27 07:10:30;;;;;;;;;44.25;38.50;;;;;;;;5068163;28;45545;-79
2024/01/27 07:12:55;;;;;;;;;39.75;36.25;;;;;;;;5049535;28;45816;-79
2024/01/27 07:15:21;;;;;;;;;35.50;31.75;;;;;;;;5056322;28;45780;-78
2024/01/27 07:17:46;;;;;;;;;46.75;35.25;;;;;;;;5061754;27;45288;-78
2024/01/27 07:20:12;;;;;;;;;36.25;31.25;;;;;;;;5069859;28;45414;-79
2024/01/27 07:22:37;;;;;;;;;29.50;29.50;;;;;;;;5057966;28;45883;-78
2024/01/27 07:25:02;;;;;;;;;55.75;38.50;;;;;;;;5055309;28;46926;-79
2024/01/27 07:27:27;;;;;;;;;29.75;27.25;;;;;;;;5076841;28;46161;-80
2024/01/27 07:29:53;;;;;;;;;42.75;38.25;;;;;;;;5072089;28;45719;-80
2024/01/27 07:32:18;;;;;;;;;46.25;38.75;;;;;;;;5062825;28;46172;-80
2024/01/27 07:34:43;;;;;;;;;53.75;38.25;;;;;;;;5075025;28;45688;-80
2024/01/27 07:37:09;;;;;;;;;55.75;42.25;;;;;;;;5068345;28;44877;-86
2024/01/27 07:39:34;;;;;;;;;52.75;39.50;;;;;;;;5073823;27;44768;-84
2024/01/27 07:45:15;;;;;;;;;43.50;35.50;;;;;;;;5028186;28;45245;-85
2024/01/27 08:01:05;;;;;;;;;;;;;;;;;;;;;
2024/01/27 08:04:13;;;;;;;;;;;;;;;;;;;;;
2024/01/27 08:07:19;;;;;;;;;53.00;43.50;;;;;;;;4969129;28;35550;-86
2024/01/27 08:10:33;;;;;;;;;48.75;40.00;;;;;;;;4951957;28;11377;-87
2024/01/27 08:22:38;;;;;;;;;43.00;37.25;;;;;;;;4903494;29;12082;-86
2024/01/27 08:25:03;;;;;;;;;52.50;42.25;;;;;;;;5000484;28;10985;-83
2024/01/27 08:27:29;;;;;;;;;46.25;38.75;;;;;;;;5040147;28;11117;-87
2024/01/27 08:30:00;;;;;;;;;53.75;41.00;;;;;;;;5109519;28;8783;-85
2024/01/27 08:32:28;;;;;;;;;48.00;40.00;;;;;;;;5107720;28;8739;-84
2024/01/27 08:34:55;;;;;;;;;43.00;37.75;;;;;;;;5081346;28;11207;-84
2024/01/27 08:37:23;;;;;;;;;49.50;40.75;;;;;;;;5098147;28;11400;-84
2024/01/27 08:39:50;;;;;;;;;51.75;43.75;;;;;;;;5085182;28;11308;-80
2024/01/27 08:42:16;;;;;;;;;52.50;42.50;;;;;;;;5093463;28;11090;-79
2024/01/27 08:44:41;;;;;;;;;45.25;38.25;;;;;;;;5093920;28;10980;-79
2024/01/27 08:47:06;;;;;;;;;47.25;41.00;;;;;;;;5086929;28;10222;-81
2024/01/27 08:49:31;;;;;;;;;46.00;39.50;;;;;;;;5086366;28;8822;-81
2024/01/27 08:51:56;;;;;;;;;48.50;40.00;;;;;;;;5108438;28;8805;-80
2024/01/27 08:54:22;;;;;;;;;46.50;38.25;;;;;;;;5093605;28;8800;-81
2024/01/27 08:56:47;;;;;;;;;42.00;36.50;;;;;;;;5111830;27;8916;-82
2024/01/27 08:59:12;;;;;;;;;48.25;40.75;;;;;;;;5112986;28;8806;-78
2024/01/27 09:01:38;;;;;;;;;43.75;39.00;;;;;;;;5106869;28;8811;-80
2024/01/27 09:04:03;;;;;;;;;46.50;37.75;;;;;;;;5107655;28;8808;-79
2024/01/27 09:06:28;;;;;;;;;56.25;41.00;;;;;;;;5115351;28;8840;-83
2024/01/27 09:08:54;;;;;;;;;42.25;36.50;;;;;;;;5094278;28;8914;-79
2024/01/27 09:11:19;;;;;;;;;42.75;36.50;;;;;;;;5113755;28;8890;-79
2024/01/27 09:13:45;;;;;;;;;43.00;37.75;;;;;;;;5114797;28;8805;-81
2024/01/27 09:16:13;;;;;;;;;44.75;35.75;;;;;;;;5109285;28;8786;-79
2024/01/27 09:18:38;;;;;;;;;47.75;38.25;;;;;;;;5109891;28;8824;-79
2024/01/27 09:21:04;;;;;;;;;43.25;37.00;;;;;;;;5096262;28;10668;-83
2024/01/27 09:23:29;;;;;;;;;43.50;36.00;;;;;;;;5111039;28;8827;-80
2024/01/27 09:25:54;;;;;;;;;43.00;36.00;;;;;;;;5114859;28;8808;-80
2024/01/27 09:28:19;;;;;;;;;45.50;35.50;;;;;;;;5111407;27;8848;-80
2024/01/27 09:30:45;;;;;;;;;40.75;34.50;;;;;;;;5102380;28;8917;-81
2024/01/27 09:33:10;;;;;;;;;38.50;34.00;;;;;;;;5090664;28;8817;-79
2024/01/27 09:35:36;;;;;;;;;38.25;32.00;;;;;;;;5112964;28;8834;-79
2024/01/27 09:38:01;;;;;;;;;33.50;32.00;;;;;;;;5112699;28;8828;-79
2024/01/27 09:40:26;;;;;;;;;62.50;47.00;;;;;;;;5108255;28;8841;-78
2024/01/27 09:42:55;;;;;;;;;37.00;31.75;;;;;;;;5102192;28;8835;-80
2024/01/27 09:45:23;;;;;;;;;45.00;31.67;;;;;;;;5119645;28;8730;-79
2024/01/27 09:47:49;;;;;;;;;40.67;32.67;;;;;;;;5114138;28;9373;-79
2024/01/27 09:50:14;;;;;;;;;33.67;31.67;;;;;;;;5113124;28;9446;-80
2024/01/27 09:52:39;;;;;;;;;40.67;35.33;;;;;;;;5112286;28;9448;-80
2024/01/27 09:55:05;;;;;;;;;35.00;32.33;;;;;;;;5107360;28;8841;-79
2024/01/27 09:57:30;;;;;;;;;38.00;33.00;;;;;;;;5094203;28;9555;-79
2024/01/27 09:59:56;;;;;;;;;35.67;33.33;;;;;;;;5093380;28;8887;-78
2024/01/27 10:02:23;;;;;;;;;38.00;35.33;;;;;;;;5092343;28;8873;-79
2024/01/27 10:04:49;;;;;;;;;40.67;36.33;;;;;;;;5111360;28;9262;-78
2024/01/27 10:07:14;;;;;;;;;41.00;34.00;;;;;;;;5111535;28;9166;-79
2024/01/27 10:09:41;;;;;;;;;30.00;26.00;;;;;;;;5099303;28;8847;-79
2024/01/27 10:12:07;;;;;;;;;36.00;31.67;;;;;;;;5113366;28;8897;-81
2024/01/27 10:14:42;;;;;;;;;36.33;30.33;;;;;;;;5116065;28;9022;-80
2024/01/27 10:17:11;;;;;;;;;41.67;34.67;;;;;;;;5103799;28;8970;-80
2024/01/27 10:19:36;;;;;;;;;36.67;31.67;;;;;;;;5095367;28;9006;-81
2024/01/27 10:22:02;;;;;;;;;37.67;33.67;;;;;;;;5094468;28;8910;-81
2024/01/27 10:24:28;;;;;;;;;39.00;32.33;;;;;;;;5112896;28;8808;-78
2024/01/27 10:26:58;;;;;;;;;43.50;37.00;;;;;;;;5110168;28;8818;-80
2024/01/27 10:29:24;;;;;;;;;32.75;31.50;;;;;;;;5107801;28;8797;-77
2024/01/27 10:31:49;;;;;;;;;37.00;32.33;;;;;;;;5108349;28;8905;-74
2024/01/27 10:34:19;;;;;;;;;34.33;31.00;;;;;;;;5108095;28;8808;-76
2024/01/27 10:36:44;;;;;;;;;34.67;31.33;;;;;;;;5089419;28;8801;-77
2024/01/27 10:39:22;;;;;;;;;31.67;30.00;;;;;;;;5108953;28;8920;-80
2024/01/27 10:41:48;;;;;;;;;31.00;28.67;;;;;;;;5106784;28;8800;-79
2024/01/27 10:44:14;;;;;;;;;36.67;33.67;;;;;;;;5091097;28;8955;-80
2024/01/27 10:46:41;;;;;;;;;42.00;33.00;;;;;;;;5100908;28;8789;-80
2024/01/27 10:49:09;;;;;;;;;38.67;34.00;;;;;;;;5094449;28;8939;-81
2024/01/27 10:51:36;;;;;;;;;38.33;33.33;;;;;;;;5109009;28;8940;-82
2024/01/27 10:54:02;;;;;;;;;34.00;31.00;;;;;;;;5087511;28;8951;-81
2024/01/27 10:56:31;;;;;;;;;35.33;34.33;;;;;;;;5109875;28;9152;-79
2024/01/27 10:58:57;;;;;;;;;39.00;32.67;;;;;;;;5097050;28;10069;-80
2024/01/27 11:01:24;;;;;;;;;28.33;24.67;;;;;;;;5099858;28;8954;-80
2024/01/27 11:03:52;;;;;;;;;38.67;33.00;;;;;;;;5075155;28;8989;-79
2024/01/27 11:06:18;;;;;;;;;16.25;14.50;;;;;;;;5102329;28;8983;-80
2024/01/27 11:08:44;;;;;;;;;24.00;20.00;;;;;;;;5106530;28;8769;-80
2024/01/27 11:11:10;;;;;;;;;11.00;9.67;;;;;;;;5093143;28;8808;-80
2024/01/27 11:13:36;;;;;;;;;9.33;8.67;;;;;;;;5113032;28;8789;-79
2024/01/27 11:16:02;;;;;;;;;9.75;7.50;;;;;;;;5111029;28;8773;-76
2024/01/27 11:18:27;;;;;;;;;7.67;7.67;;;;;;;;5111637;28;8817;-80
2024/01/27 11:20:53;;;;;;;;;9.00;8.00;;;;;;;;5086990;28;9029;-78
2024/01/27 11:23:19;;;;;;;;;9.25;8.00;;;;;;;;5100698;28;8860;-80
2024/01/27 11:25:44;;;;;;;;;8.67;8.67;;;;;;;;5103296;28;10108;-80
2024/01/27 11:28:11;;;;;;;;;8.25;6.00;;;;;;;;5086831;28;8807;-80
2024/01/27 11:30:39;;;;;;;;;8.75;6.25;;;;;;;;5083347;28;8829;-83
2024/01/27 11:33:05;;;;;;;;;10.25;8.50;;;;;;;;5065844;28;9847;-82
2024/01/27 11:35:30;;;;;;;;;11.00;10.00;;;;;;;;5081527;28;8939;-82
2024/01/27 11:37:55;;;;;;;;;8.67;6.67;;;;;;;;5075081;28;8861;-83
2024/01/27 11:40:21;;;;;;;;;11.67;7.67;;;;;;;;5068080;28;8940;-81
2024/01/27 11:42:59;;;;;;;;;10.00;7.00;;;;;;;;5080322;28;8806;-83
2024/01/27 11:45:25;;;;;;;;;9.00;6.00;;;;;;;;5067738;28;8999;-75
2024/01/27 11:47:50;;;;;;;;;5.00;4.33;;;;;;;;5089614;28;8807;-80
2024/01/27 11:50:19;;;;;;;;;8.67;6.00;;;;;;;;5097931;28;8992;-80
2024/01/27 11:52:44;;;;;;;;;7.25;6.00;;;;;;;;5082359;28;8810;-80
2024/01/27 11:55:10;;;;;;;;;6.67;5.67;;;;;;;;5074631;28;8823;-81
2024/01/27 11:57:35;;;;;;;;;7.00;5.00;;;;;;;;5104543;28;8954;-79
2024/01/27 12:00:00;;;;;;;;;6.67;5.67;;;;;;;;5069194;28;8900;-83
2024/01/27 12:02:26;;;;;;;;;4.67;4.67;;;;;;;;5061312;28;8903;-81
2024/01/27 12:04:51;;;;;;;;;7.00;5.67;;;;;;;;5088253;28;8932;-79
2024/01/27 12:07:19;;;;;;;;;4.00;4.00;;;;;;;;5082828;28;8899;-79
2024/01/27 12:09:45;;;;;;;;;8.50;6.75;;;;;;;;5087771;28;8920;-82
2024/01/27 12:12:12;;;;;;;;;9.67;7.00;;;;;;;;5074336;28;8836;-83
2024/01/27 12:14:46;;;;;;;;;10.50;8.00;;;;;;;;5099342;28;8943;-78
2024/01/27 12:17:12;;;;;;;;;5.00;5.00;;;;;;;;5082656;28;8817;-79
2024/01/27 12:19:38;;;;;;;;;5.00;5.00;;;;;;;;5082898;28;8844;-78
2024/01/27 12:22:20;;;;;;;;;8.67;6.67;;;;;;;;5091906;28;8804;-78
2024/01/27 12:24:45;;;;;;;;;12.50;7.00;;;;;;;;5085157;28;8791;-75
2024/01/27 12:27:10;;;;;;;;;7.67;6.00;;;;;;;;5088462;28;8823;-75
2024/01/27 12:29:36;;;;;;;;;8.00;7.00;;;;;;;;5087079;28;8811;-75
2024/01/27 12:32:01;;;;;;;;;7.00;5.67;;;;;;;;5078693;28;8814;-75
2024/01/27 12:34:26;;;;;;;;;10.00;8.00;;;;;;;;5073335;28;8794;-75
2024/01/27 12:36:52;;;;;;;;;5.33;5.33;;;;;;;;5093127;28;8803;-75
2024/01/27 12:39:17;;;;;;;;;6.00;5.00;;;;;;;;5091406;28;8869;-80
2024/01/27 12:41:43;;;;;;;;;7.67;5.00;;;;;;;;5091225;28;8913;-74
2024/01/27 12:44:08;;;;;;;;;6.00;6.00;;;;;;;;5089213;28;8806;-75
2024/01/27 12:46:36;;;;;;;;;9.67;8.00;;;;;;;;5099384;28;8912;-86
2024/01/27 12:49:03;;;;;;;;;8.25;6.25;;;;;;;;5079547;28;9918;-76
2024/01/27 12:51:28;;;;;;;;;7.50;6.50;;;;;;;;5079262;28;8820;-76
2024/01/27 12:53:53;;;;;;;;;9.00;8.00;;;;;;;;5075635;28;8848;-75
2024/01/27 12:56:18;;;;;;;;;11.67;10.00;;;;;;;;5084903;28;8991;-79
2024/01/27 12:58:44;;;;;;;;;14.67;12.00;;;;;;;;5062002;28;8872;-79
2024/01/27 13:01:09;;;;;;;;;7.33;6.00;;;;;;;;5083517;28;8852;-79
2024/01/27 13:03:34;;;;;;;;;12.67;9.67;;;;;;;;5089306;28;8887;-79
2024/01/27 13:06:00;;;;;;;;;10.67;8.00;;;;;;;;5080702;28;8845;-80
2024/01/27 13:08:26;;;;;;;;;10.00;9.00;;;;;;;;5096026;28;8895;-79
2024/01/27 13:10:51;;;;;;;;;9.00;9.00;;;;;;;;5063444;28;11435;-79
2024/01/27 13:13:16;;;;;;;;;10.33;8.67;;;;;;;;5080206;28;9956;-80
2024/01/27 13:15:42;;;;;;;;;9.33;9.33;;;;;;;;5076935;28;8988;-80
2024/01/27 13:18:07;;;;;;;;;11.00;10.67;;;;;;;;5096849;28;8817;-80
2024/01/27 13:20:32;;;;;;;;;13.33;13.33;;;;;;;;5077683;28;8869;-80
2024/01/27 13:23:01;;;;;;;;;15.00;14.00;;;;;;;;5087766;28;8822;-81
2024/01/27 13:25:26;;;;;;;;;12.00;9.75;;;;;;;;5062961;28;8941;-80
2024/01/27 13:27:51;;;;;;;;;9.67;9.67;;;;;;;;5088436;28;8913;-80
2024/01/27 13:30:19;;;;;;;;;10.67;9.33;;;;;;;;5075398;28;8858;-80
2024/01/27 13:32:44;;;;;;;;;11.75;9.50;;;;;;;;5084223;28;8816;-80
2024/01/27 13:35:14;;;;;;;;;8.33;5.67;;;;;;;;5082854;28;8817;-84
2024/01/27 13:37:39;;;;;;;;;8.25;6.50;;;;;;;;5087294;28;8846;-81
2024/01/27 13:40:07;;;;;;;;;10.00;7.00;;;;;;;;5082477;28;8874;-79
2024/01/27 13:42:32;;;;;;;;;12.25;8.75;;;;;;;;5088923;28;8795;-79
2024/01/27 13:44:57;;;;;;;;;3.33;2.00;;;;;;;;5066161;28;8852;-79
2024/01/27 13:47:23;;;;;;;;;4.33;2.00;;;;;;;;5083345;28;8803;-79
2024/01/27 13:49:48;;;;;;;;;6.33;6.00;;;;;;;;5092130;28;8834;-80
2024/01/27 13:52:13;;;;;;;;;5.67;3.33;;;;;;;;5094106;28;8838;-80
2024/01/27 13:54:39;;;;;;;;;5.00;5.00;;;;;;;;5066785;28;9516;-79
2024/01/27 13:57:04;;;;;;;;;5.00;5.00;;;;;;;;5092362;28;8946;-79
2024/01/27 13:59:30;;;;;;;;;5.33;5.33;;;;;;;;5087018;28;9659;-80
2024/01/27 14:01:56;;;;;;;;;5.33;4.00;;;;;;;;5089484;28;8984;-81
2024/01/27 14:04:22;;;;;;;;;4.75;4.75;;;;;;;;5073672;28;8920;-80
2024/01/27 14:06:47;;;;;;;;;6.33;5.00;;;;;;;;5086454;28;8829;-82
2024/01/27 14:09:15;;;;;;;;;6.67;4.00;;;;;;;;5077498;28;8855;-79
2024/01/27 14:11:42;;;;;;;;;3.75;3.75;;;;;;;;5099152;28;8773;-79
2024/01/27 14:14:07;;;;;;;;;7.00;4.00;;;;;;;;5104247;28;8912;-79
2024/01/27 14:16:32;;;;;;;;;2.33;2.00;;;;;;;;5084328;28;8832;-79
2024/01/27 14:18:57;;;;;;;;;4.00;3.00;;;;;;;;5053715;28;8856;-79
2024/01/27 14:21:23;;;;;;;;;5.00;3.33;;;;;;;;5088717;28;8929;-79
2024/01/27 14:23:48;;;;;;;;;7.67;5.00;;;;;;;;5070341;28;8830;-79
2024/01/27 14:26:16;;;;;;;;;8.00;3.67;;;;;;;;5071831;28;8797;-78
2024/01/27 14:28:42;;;;;;;;;4.25;4.25;;;;;;;;5069732;28;8802;-79
2024/01/27 14:31:07;;;;;;;;;8.00;3.33;;;;;;;;5089754;28;8818;-79
2024/01/27 14:33:33;;;;;;;;;5.00;5.00;;;;;;;;5088427;28;8795;-79
2024/01/27 14:35:58;;;;;;;;;6.00;3.33;;;;;;;;5087732;28;8795;-80
2024/01/27 14:38:24;;;;;;;;;5.67;5.33;;;;;;;;5088857;28;8836;-81
2024/01/27 14:40:49;;;;;;;;;4.00;4.00;;;;;;;;5088827;28;8842;-79
2024/01/27 14:43:17;;;;;;;;;8.00;4.33;;;;;;;;5094176;28;8807;-79
2024/01/27 14:45:42;;;;;;;;;5.25;5.25;;;;;;;;5078923;28;8796;-79
2024/01/27 14:48:07;;;;;;;;;12.00;7.00;;;;;;;;5061255;28;8882;-80
2024/01/27 14:50:33;;;;;;;;;7.67;6.67;;;;;;;;5073163;28;8847;-80
2024/01/27 14:52:58;;;;;;;;;7.33;5.67;;;;;;;;5081282;28;8842;-80
2024/01/27 14:55:26;;;;;;;;;6.33;6.00;;;;;;;;5089664;28;8794;-80